Time;durP1;ratioP1;P1;durP2;ratioP2;P2;SDS_P1;SDS_P2;PMS_P1;PMS_P2;Temp;Humidity;BMP_temperature;BMP_pressure;BME280_temperature;BME280_humidity;BME280_pressure;Samples;Min_cycle;Max_cycle;Signal;HPM_P1;HPM_P2
2023/06/23 00:00:12;;;;;;;14.05;8.75;;;17.10;99.90;;;;;;5137954;27;20046;-26
2023/06/23 00:02:40;;;;;;;13.40;8.48;;;17.10;99.90;;;;;;5136807;27;20489;-26
2023/06/23 00:05:10;;;;;;;11.23;7.90;;;17.10;99.90;;;;;;5117127;27;20454;-26
2023/06/23 00:07:36;;;;;;;14.25;9.00;;;17.10;99.90;;;;;;5119375;27;20121;-26
2023/06/23 00:10:06;;;;;;;10.07;8.05;;;17.00;99.90;;;;;;5118651;27;20047;-26
2023/06/23 00:12:41;;;;;;;12.77;8.40;;;17.00;99.90;;;;;;5102223;27;20082;-26
2023/06/23 00:15:08;;;;;;;11.68;8.30;;;17.00;99.90;;;;;;5137173;27;20491;-27
2023/06/23 00:17:36;;;;;;;11.88;8.73;;;17.00;99.90;;;;;;5137387;27;20054;-26
2023/06/23 00:20:07;;;;;;;15.73;10.68;;;17.00;99.90;;;;;;5118622;27;20051;-26
2023/06/23 00:22:33;;;;;;;13.98;9.75;;;17.00;99.90;;;;;;5136784;27;20054;-26
2023/06/23 00:24:59;;;;;;;19.25;12.13;;;16.90;99.90;;;;;;5136258;27;20039;-26
2023/06/23 00:27:25;;;;;;;14.68;10.93;;;16.90;99.90;;;;;;5101263;27;20408;-26
2023/06/23 00:29:51;;;;;;;17.80;12.10;;;16.90;99.90;;;;;;5084314;27;20047;-26
2023/06/23 00:32:17;;;;;;;15.05;11.90;;;16.90;99.90;;;;;;5136535;27;20502;-26
2023/06/23 00:34:44;;;;;;;18.58;11.25;;;16.90;99.90;;;;;;5118914;27;20371;-26
2023/06/23 00:37:10;;;;;;;18.70;11.52;;;16.90;99.90;;;;;;5137263;27;20051;-26
2023/06/23 00:39:36;;;;;;;14.63;12.50;;;16.90;99.90;;;;;;5136360;27;20484;-26
2023/06/23 00:42:08;;;;;;;15.13;12.00;;;16.90;99.90;;;;;;5136883;27;20519;-26
2023/06/23 00:44:34;;;;;;;17.08;11.95;;;16.90;99.90;;;;;;5136242;27;20043;-27
2023/06/23 00:47:01;;;;;;;16.63;11.98;;;16.90;99.90;;;;;;5137000;27;20126;-26
2023/06/23 00:49:27;;;;;;;14.57;10.98;;;16.90;99.90;;;;;;5135945;27;20063;-26
2023/06/23 00:51:54;;;;;;;16.02;10.98;;;16.80;99.90;;;;;;5136099;27;20054;-27
2023/06/23 00:54:20;;;;;;;15.60;11.20;;;16.80;99.90;;;;;;5136068;27;20050;-26
2023/06/23 00:56:47;;;;;;;15.90;10.77;;;16.80;99.90;;;;;;5136037;27;20427;-26
2023/06/23 00:59:14;;;;;;;15.57;11.35;;;16.80;99.90;;;;;;5136793;27;20072;-26
2023/06/23 01:01:40;;;;;;;14.80;10.95;;;16.80;99.90;;;;;;5136490;27;20076;-26
2023/06/23 01:04:08;;;;;;;15.25;10.05;;;16.80;99.90;;;;;;5135922;27;20043;-26
2023/06/23 01:06:50;;;;;;;13.73;10.70;;;16.80;99.90;;;;;;5117638;27;20047;-26
2023/06/23 01:09:25;;;;;;;19.67;11.05;;;16.80;99.90;;;;;;5117531;27;20058;-26
2023/06/23 01:12:12;;;;;;;14.55;11.38;;;16.80;99.90;;;;;;5117376;27;20092;-26
2023/06/23 01:14:58;;;;;;;18.67;12.38;;;16.70;99.90;;;;;;5117567;27;20051;-26
2023/06/23 01:17:53;;;;;;;18.25;13.05;;;16.60;99.90;;;;;;5117549;27;20092;-26
2023/06/23 01:20:29;;;;;;;20.70;13.07;;;16.60;99.90;;;;;;5102625;27;20104;-26
2023/06/23 01:23:45;;;;;;;19.20;14.00;;;16.50;99.90;;;;;;5135580;27;20408;-26
2023/06/23 01:26:50;;;;;;;19.50;13.77;;;16.50;99.90;;;;;;5092307;27;20058;-26
2023/06/23 01:29:25;;;;;;;19.67;12.88;;;16.40;99.90;;;;;;5065972;27;20058;-26
2023/06/23 01:32:01;;;;;;;14.82;12.88;;;16.40;99.90;;;;;;5135954;27;20381;-26
2023/06/23 01:34:36;;;;;;;18.92;12.98;;;16.40;99.90;;;;;;5135383;27;20055;-26
2023/06/23 01:37:08;;;;;;;15.07;11.90;;;16.30;99.90;;;;;;5117459;27;20055;-26
2023/06/23 01:39:38;;;;;;;16.50;11.45;;;16.30;99.90;;;;;;5135057;27;20557;-26
2023/06/23 01:42:08;;;;;;;14.70;12.02;;;16.30;99.90;;;;;;5135855;27;20039;-26
2023/06/23 01:44:36;;;;;;;19.02;11.82;;;16.20;99.90;;;;;;5135751;27;20046;-26
2023/06/23 01:47:08;;;;;;;17.50;11.30;;;16.20;99.90;;;;;;5135020;27;20047;-26
2023/06/23 01:49:37;;;;;;;22.38;11.45;;;16.10;99.90;;;;;;5116982;27;20055;-26
2023/06/23 01:52:04;;;;;;;16.08;11.00;;;16.00;99.90;;;;;;5116434;27;20484;-26
2023/06/23 01:54:31;;;;;;;15.98;10.68;;;16.00;99.90;;;;;;5117697;27;20049;-26
2023/06/23 01:56:59;;;;;;;19.38;11.30;;;15.90;99.90;;;;;;5134941;27;20035;-26
2023/06/23 01:59:25;;;;;;;15.43;10.40;;;15.90;99.90;;;;;;5136063;27;20380;-26
2023/06/23 02:01:54;;;;;;;14.05;10.88;;;15.90;99.90;;;;;;5116655;27;20047;-25
2023/06/23 02:04:21;;;;;;;15.18;10.35;;;15.80;99.90;;;;;;5134821;27;20128;-26
2023/06/23 02:06:49;;;;;;;14.57;9.95;;;15.80;99.90;;;;;;5135277;27;20354;-26
2023/06/23 02:09:26;;;;;;;16.40;10.38;;;15.70;99.90;;;;;;5135335;27;20043;-26
2023/06/23 02:11:57;;;;;;;15.75;11.35;;;15.80;99.90;;;;;;5135015;27;20437;-26
2023/06/23 02:14:25;;;;;;;25.25;9.80;;;15.80;99.90;;;;;;5134473;27;20488;-26
2023/06/23 02:16:53;;;;;;;16.20;9.68;;;15.80;99.90;;;;;;5135470;27;20043;-26
2023/06/23 02:19:20;;;;;;;14.18;9.63;;;15.90;99.90;;;;;;5134630;27;20047;-25
2023/06/23 02:21:47;;;;;;;14.90;9.93;;;15.90;99.90;;;;;;5134629;28;20050;-26
2023/06/23 02:24:16;;;;;;;14.80;10.13;;;16.00;99.90;;;;;;5099637;28;20043;-26
2023/06/23 02:26:47;;;;;;;25.17;10.70;;;16.00;99.90;;;;;;5135402;27;20039;-26
2023/06/23 02:29:14;;;;;;;17.80;9.80;;;16.00;99.90;;;;;;5139289;27;20046;-26
2023/06/23 02:31:40;;;;;;;11.80;9.20;;;16.00;99.90;;;;;;5138869;27;20112;-26
2023/06/23 02:34:06;;;;;;;15.57;10.02;;;16.00;99.90;;;;;;5120418;27;20130;-26
2023/06/23 02:36:43;;;;;;;17.13;9.45;;;16.00;99.90;;;;;;5139309;27;20128;-26
2023/06/23 02:39:13;;;;;;;14.27;9.35;;;15.90;99.90;;;;;;5138732;27;20454;-26
2023/06/23 02:41:40;;;;;;;12.25;9.10;;;15.90;99.90;;;;;;5139222;27;20139;-26
2023/06/23 02:44:14;;;;;;;14.88;9.30;;;15.90;99.90;;;;;;5139190;27;20043;-26
2023/06/23 02:46:43;;;;;;;15.57;7.93;;;15.90;99.90;;;;;;5120474;27;20035;-26
2023/06/23 02:49:14;;;;;;;11.18;8.18;;;15.90;99.90;;;;;;5138587;27;20055;-26
2023/06/23 02:51:43;;;;;;;12.18;7.88;;;15.90;99.90;;;;;;5139089;27;20059;-26
2023/06/23 02:54:12;;;;;;;13.80;8.00;;;15.80;99.90;;;;;;5138678;27;20039;-26
2023/06/23 02:56:43;;;;;;;9.45;8.13;;;15.70;99.90;;;;;;5138644;27;20055;-26
2023/06/23 02:59:15;;;;;;;13.18;8.52;;;15.60;99.90;;;;;;5138346;27;20046;-26
2023/06/23 03:01:45;;;;;;;15.80;8.70;;;15.60;99.90;;;;;;5138331;27;20050;-25
2023/06/23 03:04:11;;;;;;;12.65;8.27;;;15.50;99.90;;;;;;5138209;27;20047;-26
2023/06/23 03:06:38;;;;;;;10.13;7.72;;;15.40;99.90;;;;;;5138155;27;20043;-26
2023/06/23 03:09:05;;;;;;;11.48;7.90;;;15.30;99.90;;;;;;5138118;27;20074;-26
2023/06/23 03:11:33;;;;;;;14.07;8.10;;;15.20;99.90;;;;;;5138149;27;20043;-26
2023/06/23 03:13:59;;;;;;;11.60;7.65;;;15.10;99.90;;;;;;5138849;27;20051;-26
2023/06/23 03:16:45;;;;;;;11.52;8.50;;;15.10;99.90;;;;;;5119892;27;20050;-26
2023/06/23 03:19:23;;;;;;;12.90;8.25;;;15.00;99.90;;;;;;5137992;27;20043;-26
2023/06/23 03:21:56;;;;;;;12.98;8.10;;;15.00;99.90;;;;;;5137993;27;20046;-25
2023/06/23 03:24:25;;;;;;;13.02;8.10;;;14.90;99.90;;;;;;5103074;27;20047;-25
2023/06/23 03:26:57;;;;;;;11.07;7.90;;;14.80;99.90;;;;;;5119839;27;20074;-26
2023/06/23 03:29:26;;;;;;;16.88;9.60;;;14.70;99.90;;;;;;5138408;27;20104;-26
2023/06/23 03:31:56;;;;;;;12.32;8.60;;;14.60;99.90;;;;;;5137669;27;20039;-25
2023/06/23 03:34:24;;;;;;;12.55;8.30;;;14.60;99.90;;;;;;5120405;27;20051;-26
2023/06/23 03:36:51;;;;;;;13.50;9.43;;;14.50;99.90;;;;;;5103048;27;20524;-25
2023/06/23 03:39:21;;;;;;;14.18;9.23;;;14.40;99.90;;;;;;5102129;27;20058;-26
2023/06/23 03:41:48;;;;;;;14.13;8.75;;;14.30;99.90;;;;;;5138099;27;20047;-25
2023/06/23 03:44:29;;;;;;;14.65;8.88;;;14.30;99.90;;;;;;5137750;27;20050;-25
2023/06/23 03:47:03;;;;;;;14.68;9.80;;;14.20;99.90;;;;;;5138008;27;20053;-26
2023/06/23 03:49:35;;;;;;;12.25;9.02;;;14.10;99.90;;;;;;5137772;27;20066;-25
2023/06/23 03:52:03;;;;;;;14.45;9.77;;;14.00;99.90;;;;;;5137934;27;20126;-25
2023/06/23 03:54:30;;;;;;;15.70;9.80;;;14.00;99.90;;;;;;5137862;27;20135;-25
2023/06/23 03:56:59;;;;;;;14.85;10.27;;;14.00;99.90;;;;;;5137208;27;20047;-25
2023/06/23 03:59:27;;;;;;;15.13;10.75;;;14.00;99.90;;;;;;5137158;27;20054;-26
2023/06/23 04:01:57;;;;;;;16.00;10.48;;;13.90;99.90;;;;;;5137414;27;20050;-25
2023/06/23 04:04:24;;;;;;;13.00;10.02;;;13.90;99.90;;;;;;5137101;27;20464;-25
2023/06/23 04:06:55;;;;;;;12.63;10.00;;;13.80;99.90;;;;;;5137215;27;20541;-25
2023/06/23 04:09:27;;;;;;;12.77;10.23;;;13.80;99.90;;;;;;5137018;27;20039;-25
2023/06/23 04:11:55;;;;;;;15.60;11.38;;;13.80;99.90;;;;;;5136995;27;20051;-25
2023/06/23 04:14:27;;;;;;;15.30;10.10;;;13.90;99.90;;;;;;5136963;27;20130;-26
2023/06/23 04:16:54;;;;;;;14.80;10.63;;;13.90;99.90;;;;;;5137213;27;20446;-25
2023/06/23 04:19:27;;;;;;;19.90;11.95;;;13.90;99.90;;;;;;5118594;27;20051;-26
2023/06/23 04:21:54;;;;;;;16.85;11.50;;;14.00;99.90;;;;;;5137681;27;20043;-26
2023/06/23 04:24:25;;;;;;;15.57;10.52;;;14.00;99.90;;;;;;5118385;27;20537;-25
2023/06/23 04:26:53;;;;;;;17.60;11.15;;;14.00;99.90;;;;;;5136832;27;20047;-25
2023/06/23 04:29:22;;;;;;;16.52;10.63;;;13.90;99.90;;;;;;5136584;27;20047;-26
2023/06/23 04:31:50;;;;;;;14.25;10.32;;;13.90;99.90;;;;;;5118425;27;20476;-26
2023/06/23 04:34:16;;;;;;;18.85;12.82;;;13.90;99.90;;;;;;5137306;27;20047;-25
2023/06/23 04:37:07;;;;;;;15.48;11.48;;;14.00;99.90;;;;;;5137063;27;20042;-26
2023/06/23 04:39:58;;;;;;;23.00;12.57;;;14.10;99.90;;;;;;5136457;27;20054;-25
2023/06/23 04:42:35;;;;;;;15.15;11.77;;;14.20;99.90;;;;;;5056183;27;20498;-25
2023/06/23 04:45:02;;;;;;;18.02;12.85;;;14.30;99.90;;;;;;5136269;27;20047;-26
2023/06/23 04:47:33;;;;;;;22.95;12.02;;;14.40;99.90;;;;;;5100908;27;20051;-25
2023/06/23 04:50:04;;;;;;;17.83;11.65;;;14.50;99.90;;;;;;5135324;27;20054;-25
2023/06/23 04:52:33;;;;;;;18.52;11.27;;;14.60;99.90;;;;;;5137011;27;20043;-25
2023/06/23 04:55:03;;;;;;;19.10;11.55;;;14.60;99.90;;;;;;5117700;27;20389;-25
2023/06/23 04:57:33;;;;;;;18.42;12.48;;;14.70;99.90;;;;;;5136942;27;20397;-25
2023/06/23 05:00:02;;;;;;;20.25;12.13;;;14.80;99.90;;;;;;5135999;27;20042;-25
2023/06/23 05:02:31;;;;;;;17.83;12.20;;;14.90;99.90;;;;;;5135930;27;20043;-25
2023/06/23 05:04:59;;;;;;;14.85;11.70;;;15.00;99.90;;;;;;5135825;27;20047;-26
2023/06/23 05:07:28;;;;;;;16.73;10.85;;;15.10;99.90;;;;;;5117482;27;20050;-25
2023/06/23 05:09:55;;;;;;;17.35;11.85;;;15.30;99.90;;;;;;5135781;27;20051;-26
2023/06/23 05:12:23;;;;;;;14.57;10.73;;;15.40;99.90;;;;;;5135765;27;20043;-25
2023/06/23 05:14:51;;;;;;;18.02;11.57;;;15.60;99.90;;;;;;5135686;27;20166;-25
2023/06/23 05:17:18;;;;;;;15.68;10.57;;;15.80;99.90;;;;;;5135639;27;20438;-26
2023/06/23 05:19:46;;;;;;;16.50;11.73;;;16.00;99.90;;;;;;5136178;27;20053;-26
2023/06/23 05:22:15;;;;;;;14.35;10.75;;;16.10;99.90;;;;;;5135538;27;20047;-26
2023/06/23 05:24:45;;;;;;;14.10;10.25;;;16.20;99.90;;;;;;5117416;27;20054;-26
2023/06/23 05:27:11;;;;;;;14.07;10.27;;;16.20;99.90;;;;;;5135284;27;20081;-26
2023/06/23 05:29:41;;;;;;;13.23;9.60;;;16.20;99.90;;;;;;5135680;27;20050;-26
2023/06/23 05:32:13;;;;;;;12.85;10.02;;;16.20;99.90;;;;;;5135349;27;20099;-26
2023/06/23 05:34:40;;;;;;;19.65;11.25;;;16.20;99.90;;;;;;5135933;27;20043;-25
2023/06/23 05:37:07;;;;;;;13.43;10.07;;;16.20;99.90;;;;;;5135230;27;20492;-26
2023/06/23 05:39:34;;;;;;;16.05;10.18;;;16.20;99.90;;;;;;5083267;27;20058;-26
2023/06/23 05:42:00;;;;;;;13.05;9.32;;;16.20;99.90;;;;;;5116983;27;20089;-26
2023/06/23 05:44:27;;;;;;;14.35;9.50;;;16.20;99.90;;;;;;5117071;27;20089;-26
2023/06/23 05:46:58;;;;;;;12.30;10.63;;;16.40;99.90;;;;;;5116760;27;20050;-26
2023/06/23 05:49:27;;;;;;;13.07;10.07;;;16.80;99.90;;;;;;5116655;27;20116;-26
2023/06/23 05:51:59;;;;;;;13.93;10.60;;;17.10;99.90;;;;;;5135869;27;20374;-25
2023/06/23 05:54:27;;;;;;;14.80;9.55;;;17.50;99.90;;;;;;5116711;27;20039;-26
2023/06/23 05:56:57;;;;;;;10.18;8.65;;;18.20;99.90;;;;;;5134952;27;20039;-26
2023/06/23 05:59:25;;;;;;;11.60;8.82;;;18.40;99.90;;;;;;5134960;27;20043;-26
2023/06/23 06:01:57;;;;;;;9.93;7.88;;;18.50;99.90;;;;;;5117579;27;20112;-26
2023/06/23 06:04:27;;;;;;;10.63;7.63;;;19.40;99.90;;;;;;5135471;27;20130;-26
2023/06/23 06:06:56;;;;;;;9.57;7.38;;;20.00;99.90;;;;;;5134846;27;20078;-26
2023/06/23 06:09:23;;;;;;;8.65;6.03;;;20.50;67.10;;;;;;5134802;27;20082;-26
2023/06/23 06:11:51;;;;;;;7.68;6.88;;;20.80;61.10;;;;;;5099622;28;20051;-26
2023/06/23 06:14:18;;;;;;;8.00;6.53;;;20.60;1.00;;;;;;5134745;27;20096;-26
2023/06/23 06:16:47;;;;;;;8.35;6.25;;;21.10;99.90;;;;;;5135262;28;20043;-26
2023/06/23 06:19:16;;;;;;;9.23;6.13;;;21.20;99.90;;;;;;5117105;28;20049;-26
2023/06/23 06:21:44;;;;;;;6.60;4.93;;;21.30;1.00;;;;;;5134300;27;20493;-26
2023/06/23 06:24:13;;;;;;;8.13;4.90;;;21.10;42.10;;;;;;5134542;28;20131;-26
2023/06/23 06:26:41;;;;;;;6.18;4.53;;;21.10;99.90;;;;;;5135448;28;20047;-26
2023/06/23 06:29:08;;;;;;;6.45;4.85;;;20.80;99.90;;;;;;5116504;28;20086;-26
2023/06/23 06:31:36;;;;;;;6.22;4.82;;;20.90;1.00;;;;;;5116165;28;20485;-26
2023/06/23 06:34:03;;;;;;;5.53;4.45;;;20.90;14.20;;;;;;5134837;28;20051;-26
2023/06/23 06:36:32;;;;;;;5.47;4.43;;;21.10;1.00;;;;;;5134529;28;20047;-26
2023/06/23 06:38:59;;;;;;;7.57;4.72;;;21.30;1.00;;;;;;5135057;28;20535;-26
2023/06/23 06:41:25;;;;;;;6.90;4.03;;;21.30;99.90;;;;;;5134759;28;20054;-26
2023/06/23 06:43:51;;;;;;;8.55;4.35;;;21.40;1.00;;;;;;5135013;28;20047;-26
2023/06/23 06:46:18;;;;;;;9.02;3.85;;;21.40;99.90;;;;;;5135159;28;20153;-26
2023/06/23 06:48:47;;;;;;;8.02;4.20;;;21.30;99.90;;;;;;5134329;28;20465;-25
2023/06/23 06:51:17;;;;;;;5.30;3.75;;;21.60;99.90;;;;;;5116299;28;20039;-26
2023/06/23 06:53:44;;;;;;;4.53;3.67;;;21.90;99.90;;;;;;5116112;28;20504;-26
2023/06/23 06:56:10;;;;;;;5.57;3.75;;;22.30;27.50;;;;;;5134848;28;20079;-26
2023/06/23 06:58:36;;;;;;;6.10;3.05;;;22.60;1.00;;;;;;5116257;28;20498;-26
2023/06/23 07:01:03;;;;;;;3.95;3.28;;;22.80;99.90;;;;;;5116130;28;20130;-26
2023/06/23 07:03:29;;;;;;;5.97;3.40;;;22.90;99.90;;;;;;5134588;28;20055;-26
2023/06/23 07:05:55;;;;;;;4.45;3.70;;;23.00;99.90;;;;;;5134197;28;20091;-26
2023/06/23 07:08:21;;;;;;;4.95;2.85;;;23.10;99.90;;;;;;5134834;28;20043;-26
2023/06/23 07:10:47;;;;;;;3.92;2.70;;;23.30;99.90;;;;;;5131541;28;20048;-25
2023/06/23 07:13:13;;;;;;;4.88;2.60;;;23.20;1.00;;;;;;5098200;27;20549;-25
2023/06/23 07:15:38;;;;;;;4.30;3.90;;;23.40;1.00;;;;;;5137500;27;20548;-25
2023/06/23 07:18:04;;;;;;;5.07;3.75;;;23.20;99.90;;;;;;5138848;27;20126;-26
2023/06/23 07:20:30;;;;;;;4.65;3.13;;;23.30;99.90;;;;;;5102674;27;20039;-26
2023/06/23 07:22:56;;;;;;;3.83;3.50;;;23.20;99.90;;;;;;5138485;27;20054;-26
2023/06/23 07:25:21;;;;;;;3.92;3.55;;;23.10;99.90;;;;;;5119612;27;20050;-26
2023/06/23 07:27:48;;;;;;;5.38;3.40;;;22.80;99.90;;;;;;5138548;27;20043;-26
2023/06/23 07:30:15;;;;;;;5.43;3.58;;;23.10;99.90;;;;;;5137762;27;20051;-26
2023/06/23 07:32:42;;;;;;;8.07;2.80;;;23.10;1.00;;;;;;5119827;27;20043;-26
2023/06/23 07:35:08;;;;;;;5.57;3.30;;;23.10;99.90;;;;;;5137596;27;20055;-26
2023/06/23 07:37:34;;;;;;;5.80;3.67;;;23.10;99.90;;;;;;5138132;27;20099;-25
2023/06/23 07:40:00;;;;;;;4.10;3.28;;;23.00;99.90;;;;;;5119339;27;20108;-27
2023/06/23 07:42:26;;;;;;;7.40;3.88;;;23.00;99.90;;;;;;5119458;27;20043;-27
2023/06/23 07:44:52;;;;;;;5.22;3.40;;;23.10;99.90;;;;;;5137494;27;20092;-26
2023/06/23 07:47:18;;;;;;;5.28;3.22;;;23.20;99.90;;;;;;5137348;27;20128;-26
2023/06/23 07:49:44;;;;;;;4.75;3.55;;;23.60;99.90;;;;;;5118905;27;20055;-26
2023/06/23 07:52:09;;;;;;;7.00;3.30;;;23.70;99.90;;;;;;5119219;27;20047;-27
2023/06/23 07:54:36;;;;;;;4.78;3.55;;;23.70;99.90;;;;;;5137225;27;20039;-26
2023/06/23 07:57:05;;;;;;;6.53;4.35;;;23.50;1.00;;;;;;5137192;27;20071;-26
2023/06/23 07:59:31;;;;;;;6.35;4.70;;;23.80;99.90;;;;;;5137214;27;20047;-26
2023/06/23 08:01:57;;;;;;;6.05;4.07;;;23.90;99.90;;;;;;5102628;27;20054;-27
2023/06/23 08:04:23;;;;;;;7.47;3.95;;;23.50;99.90;;;;;;5102345;27;20506;-26
2023/06/23 08:06:48;;;;;;;6.03;4.38;;;23.60;1.00;;;;;;5137809;27;20422;-26
2023/06/23 08:09:15;;;;;;;4.90;3.50;;;23.90;99.90;;;;;;5137007;27;20501;-26
2023/06/23 08:11:41;;;;;;;4.07;3.47;;;23.90;99.90;;;;;;5137035;27;20108;-26
2023/06/23 08:14:07;;;;;;;5.00;3.75;;;23.90;99.90;;;;;;5136965;27;20100;-26
2023/06/23 08:16:32;;;;;;;5.03;4.18;;;24.00;99.90;;;;;;5136848;27;20035;-27
2023/06/23 08:19:00;;;;;;;6.13;5.25;;;23.50;99.90;;;;;;5136836;27;20134;-26
2023/06/23 08:21:25;;;;;;;6.18;4.63;;;23.70;99.90;;;;;;5137339;27;20074;-27
2023/06/23 08:23:51;;;;;;;5.47;4.30;;;23.80;99.90;;;;;;5136523;27;20039;-26
2023/06/23 08:26:18;;;;;;;5.35;3.83;;;24.00;99.90;;;;;;5135643;27;20069;-26
2023/06/23 08:28:44;;;;;;;9.00;5.22;;;23.90;99.90;;;;;;5137096;27;20043;-26
2023/06/23 08:31:11;;;;;;;11.48;5.32;;;23.80;73.60;;;;;;5118412;27;20080;-26
2023/06/23 08:33:37;;;;;;;4.75;3.60;;;23.80;99.90;;;;;;5137374;27;20057;-26
2023/06/23 08:36:03;;;;;;;5.38;2.42;;;24.00;99.90;;;;;;5136540;27;20039;-26
2023/06/23 08:38:29;;;;;;;6.40;4.30;;;24.00;1.00;;;;;;5118922;27;20050;-27
2023/06/23 08:40:56;;;;;;;4.50;4.07;;;24.00;36.60;;;;;;5101927;27;20043;-27
2023/06/23 08:43:28;;;;;;;4.68;3.60;;;24.00;83.00;;;;;;5118000;27;20051;-26
2023/06/23 08:45:56;;;;;;;7.03;4.00;;;24.00;1.00;;;;;;5136310;27;20039;-25
2023/06/23 08:48:28;;;;;;;6.00;3.15;;;24.00;1.00;;;;;;5135955;27;20484;-26
2023/06/23 08:50:55;;;;;;;5.40;3.53;;;23.90;1.00;;;;;;5136893;27;20449;-26
2023/06/23 08:53:23;;;;;;;3.75;3.15;;;23.80;99.90;;;;;;5136441;27;20043;-27
2023/06/23 08:55:50;;;;;;;5.60;3.63;;;24.10;99.90;;;;;;5117970;27;20079;-26
2023/06/23 08:58:17;;;;;;;7.35;3.75;;;24.00;65.20;;;;;;5136059;27;20129;-26
2023/06/23 09:00:43;;;;;;;6.03;3.63;;;24.00;99.90;;;;;;5117875;27;20552;-27
2023/06/23 09:03:09;;;;;;;6.38;4.35;;;24.10;99.90;;;;;;5136479;27;20130;-27
2023/06/23 09:05:35;;;;;;;7.05;3.65;;;24.00;1.00;;;;;;5084644;27;20130;-27
2023/06/23 09:08:01;;;;;;;7.03;3.50;;;24.30;1.00;;;;;;5135832;27;20177;-26
2023/06/23 09:10:27;;;;;;;5.55;3.10;;;24.30;1.00;;;;;;5135800;27;20509;-27
2023/06/23 09:13:22;;;;;;;4.60;3.45;;;24.50;1.00;;;;;;5135779;27;20090;-26
2023/06/23 09:15:51;;;;;;;7.00;4.00;;;24.60;1.00;;;;;;5115760;27;20094;-26
2023/06/23 09:18:20;;;;;;;6.55;4.45;;;24.50;1.00;;;;;;5136243;27;20096;-27
2023/06/23 09:20:48;;;;;;;6.53;4.10;;;24.50;1.00;;;;;;5135841;27;20388;-27
2023/06/23 09:23:23;;;;;;;4.95;3.78;;;24.50;1.00;;;;;;5135577;27;20043;-26
2023/06/23 09:25:54;;;;;;;5.03;3.55;;;24.20;1.00;;;;;;5135551;27;20093;-27
2023/06/23 09:28:29;;;;;;;6.63;4.18;;;24.10;1.00;;;;;;5117227;27;20377;-26
2023/06/23 09:30:57;;;;;;;10.25;3.42;;;24.40;42.10;;;;;;5135717;27;20059;-27
2023/06/23 09:33:25;;;;;;;5.72;3.78;;;24.80;1.00;;;;;;5135443;27;20121;-27
2023/06/23 09:35:54;;;;;;;5.70;4.20;;;24.70;1.00;;;;;;5135066;27;20043;-27
2023/06/23 09:38:26;;;;;;;5.40;4.10;;;24.50;8.20;;;;;;5117043;27;20169;-26
2023/06/23 09:41:08;;;;;;;6.35;4.50;;;24.30;99.90;;;;;;5135240;27;20055;-27
2023/06/23 09:43:42;;;;;;;4.90;4.23;;;24.30;99.90;;;;;;5116818;27;20069;-27
2023/06/23 09:46:15;;;;;;;5.55;5.00;;;23.90;99.90;;;;;;5116608;27;20047;-27
2023/06/23 09:48:43;;;;;;;7.30;4.97;;;24.20;99.90;;;;;;5135351;27;20078;-27
2023/06/23 09:51:09;;;;;;;7.10;4.57;;;24.50;99.90;;;;;;5116574;27;20062;-28
2023/06/23 09:53:43;;;;;;;6.13;4.15;;;24.90;68.40;;;;;;5135164;27;20039;-26
2023/06/23 09:56:19;;;;;;;6.72;4.65;;;24.70;1.00;;;;;;5118075;27;20135;-27
2023/06/23 09:58:47;;;;;;;7.70;4.47;;;25.00;1.00;;;;;;5135898;27;20054;-27
2023/06/23 10:01:17;;;;;;;6.68;4.00;;;24.70;1.00;;;;;;5135426;27;20398;-26
2023/06/23 10:03:47;;;;;;;5.80;3.20;;;24.70;1.00;;;;;;5084014;27;20079;-28
2023/06/23 10:06:37;;;;;;;5.68;4.07;;;24.40;1.00;;;;;;5134787;27;20082;-27
2023/06/23 10:09:09;;;;;;;6.55;4.60;;;24.30;1.00;;;;;;5135438;27;20043;-28
2023/06/23 10:11:36;;;;;;;;;;;24.80;99.90;;;;;;5099956;27;20455;-27
2023/06/23 10:14:10;;;;;;;4.43;4.03;;;24.70;1.00;;;;;;5116640;27;20399;-27
2023/06/23 10:16:41;;;;;;;5.45;4.88;;;24.40;45.00;;;;;;5134856;27;20083;-27
2023/06/23 10:19:07;;;;;;;4.75;4.25;;;24.50;1.00;;;;;;5134827;27;20051;-27
2023/06/23 10:21:33;;;;;;;5.30;4.68;;;25.10;1.00;;;;;;5135233;27;20054;-27
2023/06/23 10:24:08;;;;;;;5.40;4.88;;;25.20;1.00;;;;;;5099239;28;20054;-28
2023/06/23 10:26:36;;;;;;;6.20;4.88;;;25.40;1.00;;;;;;5116214;28;20511;-28
2023/06/23 10:29:06;;;;;;;6.13;4.45;;;25.80;1.00;;;;;;5135195;28;20051;-27
2023/06/23 10:31:34;;;;;;;6.95;4.97;;;25.60;99.90;;;;;;5134610;28;20039;-27
2023/06/23 10:34:03;;;;;;;6.90;4.95;;;26.00;1.00;;;;;;5134526;28;20047;-28
2023/06/23 10:36:31;;;;;;;7.07;5.07;;;25.00;1.00;;;;;;5134567;28;20141;-27
2023/06/23 10:39:00;;;;;;;7.53;5.72;;;25.00;98.20;;;;;;5134471;28;20089;-27
2023/06/23 10:41:27;;;;;;;9.73;6.15;;;25.30;1.00;;;;;;5134488;28;20451;-27
2023/06/23 10:43:55;;;;;;;7.40;5.60;;;25.10;90.40;;;;;;5134439;28;20047;-27
2023/06/23 10:46:25;;;;;;;7.80;5.88;;;25.50;1.00;;;;;;5116710;28;20043;-26
2023/06/23 10:48:52;;;;;;;8.45;5.75;;;25.90;1.00;;;;;;5118524;27;20039;-27
2023/06/23 10:51:19;;;;;;;7.20;6.50;;;25.30;26.30;;;;;;5138639;27;20080;-27
2023/06/23 10:54:01;;;;;;;7.78;5.55;;;24.70;99.90;;;;;;5138473;27;20051;-27
2023/06/23 10:56:38;;;;;;;8.07;6.40;;;25.20;99.90;;;;;;5139330;27;20070;-27
2023/06/23 10:59:30;;;;;;;10.32;6.45;;;25.70;99.60;;;;;;5138434;27;20043;-27
2023/06/23 11:02:07;;;;;;;8.77;5.78;;;25.30;99.90;;;;;;5136088;27;20197;-27
2023/06/23 11:04:49;;;;;;;7.20;6.00;;;25.10;99.90;;;;;;5138400;27;20047;-27
2023/06/23 11:07:15;;;;;;;7.93;6.32;;;25.10;99.90;;;;;;5120176;27;20043;-27
2023/06/23 11:09:45;;;;;;;9.23;6.47;;;25.10;99.90;;;;;;5138204;27;20130;-27
2023/06/23 11:12:38;;;;;;;8.15;6.60;;;24.90;55.60;;;;;;5138105;27;20119;-27
2023/06/23 11:15:21;;;;;;;7.53;5.63;;;25.30;99.90;;;;;;5138079;27;20093;-27
2023/06/23 11:18:00;;;;;;;7.68;6.22;;;24.90;99.90;;;;;;5138727;27;20050;-27
2023/06/23 11:20:25;;;;;;;8.55;6.57;;;25.50;99.90;;;;;;5137730;27;20385;-27
2023/06/23 11:23:00;;;;;;;15.32;7.28;;;25.30;1.00;;;;;;5137873;27;20111;-27
2023/06/23 11:25:39;;;;;;;10.43;6.97;;;25.40;1.00;;;;;;5137746;27;20043;-26
2023/06/23 11:28:24;;;;;;;7.93;7.13;;;25.20;99.90;;;;;;5137478;27;20396;-27
2023/06/23 11:31:00;;;;;;;9.18;6.63;;;25.10;1.00;;;;;;5138256;27;20047;-27
2023/06/23 11:33:30;;;;;;;8.10;6.10;;;25.00;1.00;;;;;;5138299;27;20529;-26
2023/06/23 11:36:19;;;;;;;8.50;4.82;;;25.10;1.00;;;;;;5135070;27;20077;-27
2023/06/23 11:38:45;;;;;;;10.60;5.70;;;25.20;99.90;;;;;;5119514;27;20054;-27
2023/06/23 11:41:23;;;;;;;7.47;5.75;;;25.40;99.90;;;;;;5137237;27;20508;-28
2023/06/23 11:43:48;;;;;;;7.43;3.92;;;25.20;99.90;;;;;;5119276;27;20499;-27
2023/06/23 11:46:15;;;;;;;7.78;4.53;;;25.20;99.90;;;;;;5137936;27;20082;-27
2023/06/23 11:48:42;;;;;;;8.40;4.57;;;25.30;99.90;;;;;;5110636;28;20118;-26
2023/06/23 11:51:12;;;;;;;6.47;4.35;;;25.50;99.90;;;;;;5117132;28;20058;-27
2023/06/23 11:53:41;;;;;;;7.75;3.92;;;25.30;99.90;;;;;;5122218;27;20043;-27
2023/06/23 11:56:14;;;;;;;5.50;4.18;;;25.20;99.90;;;;;;5137851;27;20035;-27
2023/06/23 11:58:41;;;;;;;5.88;3.63;;;25.10;99.90;;;;;;5131186;27;20043;-28
2023/06/23 12:01:06;;;;;;;6.70;3.92;;;25.00;99.90;;;;;;5133763;27;20051;-28
2023/06/23 12:03:32;;;;;;;7.68;4.40;;;24.80;99.90;;;;;;5137419;27;20050;-28
2023/06/23 12:06:02;;;;;;;7.78;3.20;;;25.10;99.90;;;;;;5137042;27;20051;-26
2023/06/23 12:08:28;;;;;;;6.18;4.25;;;25.10;1.00;;;;;;5135317;27;20039;-28
2023/06/23 12:10:55;;;;;;;6.13;3.67;;;25.10;1.00;;;;;;5118781;27;20047;-28
2023/06/23 12:13:21;;;;;;;6.63;3.80;;;25.20;1.00;;;;;;5136966;27;20130;-27
2023/06/23 12:15:47;;;;;;;7.50;3.60;;;25.00;1.00;;;;;;5136816;27;20031;-27
2023/06/23 12:18:14;;;;;;;4.05;3.63;;;24.90;1.00;;;;;;5134967;27;20058;-27
2023/06/23 12:20:47;;;;;;;6.75;3.95;;;25.30;1.00;;;;;;5099190;27;20054;-27
2023/06/23 12:23:14;;;;;;;3.08;2.15;;;25.60;52.70;;;;;;5117437;27;20058;-27
2023/06/23 12:25:49;;;;;;;4.05;2.72;;;25.90;99.90;;;;;;5134583;27;20036;-28
2023/06/23 12:28:17;;;;;;;4.53;2.78;;;25.70;99.90;;;;;;5128565;27;20041;-27
2023/06/23 12:30:45;;;;;;;3.58;2.55;;;25.90;99.90;;;;;;5134127;27;20043;-28
2023/06/23 12:33:20;;;;;;;4.10;2.60;;;25.70;99.90;;;;;;5136124;27;20497;-27
2023/06/23 12:36:02;;;;;;;6.80;2.58;;;25.60;99.90;;;;;;5135407;27;20039;-26
2023/06/23 12:38:30;;;;;;;3.83;2.20;;;25.60;99.90;;;;;;5134601;27;20432;-27
2023/06/23 12:41:16;;;;;;;5.22;2.33;;;25.50;99.90;;;;;;5135277;27;20047;-27
2023/06/23 12:43:45;;;;;;;3.65;2.20;;;25.40;99.90;;;;;;5136464;27;20475;-26
2023/06/23 12:46:12;;;;;;;3.90;2.38;;;25.40;99.90;;;;;;5135875;27;20063;-27
2023/06/23 12:48:41;;;;;;;4.35;2.30;;;25.30;58.40;;;;;;5117584;27;20396;-27
2023/06/23 12:51:07;;;;;;;6.57;2.70;;;25.40;99.90;;;;;;5134817;27;20381;-27
2023/06/23 12:53:34;;;;;;;5.15;2.63;;;24.80;99.90;;;;;;5101236;27;20057;-27